createdAt,value
2023-01-18T18:52:00.358Z,7.65
2023-01-18T18:54:28.417Z,5.75
2023-01-18T18:56:56.663Z,8.30
2023-01-18T18:59:24.725Z,9.48
2023-01-18T19:01:53.001Z,8.93
2023-01-18T19:04:21.026Z,10.05
2023-01-18T19:06:49.091Z,12.13
2023-01-18T19:09:18.785Z,9.55
2023-01-18T19:11:54.766Z,11.05
2023-01-18T19:14:25.822Z,9.95
2023-01-18T19:16:54.498Z,7.90
2023-01-18T19:19:23.147Z,8.32
2023-01-18T19:21:52.140Z,7.57
2023-01-18T19:24:21.976Z,6.75
2023-01-18T19:26:55.314Z,7.70
2023-01-18T19:29:28.517Z,7.13
2023-01-18T19:31:59.935Z,6.75
2023-01-18T19:34:28.243Z,7.03
2023-01-18T19:36:56.274Z,6.40
2023-01-18T19:39:26.284Z,6.93
2023-01-18T19:41:54.543Z,6.80
2023-01-18T19:44:23.269Z,6.53
2023-01-18T19:46:56.093Z,6.53
2023-01-18T19:49:25.930Z,7.05
2023-01-18T19:51:54.646Z,6.43
2023-01-18T19:54:28.762Z,7.15
2023-01-18T19:56:56.668Z,6.85
2023-01-18T19:59:33.647Z,7.05
2023-01-18T20:02:01.818Z,7.88
2023-01-18T20:04:30.189Z,6.43
2023-01-18T20:06:58.705Z,6.68
2023-01-18T20:09:42.356Z,7.05
2023-01-18T20:12:12.684Z,6.70
2023-01-18T20:14:42.583Z,6.65
2023-01-18T20:17:11.873Z,6.93
2023-01-18T20:19:40.222Z,7.10
2023-01-18T20:24:58.021Z,7.20
2023-01-18T20:27:26.683Z,7.97
2023-01-18T20:29:54.640Z,7.32
2023-01-18T20:32:22.741Z,6.80
2023-01-18T20:34:50.973Z,6.82
2023-01-18T20:37:19.166Z,6.95
2023-01-18T20:39:47.472Z,7.05
2023-01-18T20:42:17.475Z,7.20
2023-01-18T20:44:49.241Z,6.60
2023-01-18T20:47:22.779Z,6.30
2023-01-18T20:49:50.823Z,6.20
2023-01-18T20:52:19.283Z,5.88
2023-01-18T20:54:50.301Z,6.40
2023-01-18T20:57:27.317Z,6.47
2023-01-18T20:59:55.614Z,6.15
2023-01-18T21:02:24.313Z,6.43
2023-01-18T21:04:52.998Z,7.18
2023-01-18T21:07:21.403Z,6.32
2023-01-18T21:09:49.669Z,6.05
2023-01-18T21:12:19.099Z,6.25
2023-01-18T21:14:47.816Z,7.00
2023-01-18T21:17:15.900Z,6.18
2023-01-18T21:19:50.257Z,6.28
2023-01-18T21:22:18.405Z,5.60
2023-01-18T21:24:47.259Z,5.93
2023-01-18T21:27:16.967Z,6.18
2023-01-18T21:29:46.771Z,5.88
2023-01-18T21:32:18.103Z,4.97
2023-01-18T21:34:52.944Z,5.65
2023-01-18T21:37:21.036Z,5.82
2023-01-18T21:39:49.297Z,5.63
2023-01-18T21:42:35.062Z,5.93
2023-01-18T21:45:22.185Z,5.75
2023-01-18T21:47:52.887Z,5.68
2023-01-18T21:50:38.595Z,4.90
2023-01-18T21:53:34.622Z,5.32
2023-01-18T21:56:02.961Z,5.00
2023-01-18T21:58:48.746Z,5.50
2023-01-18T22:01:23.158Z,5.60
2023-01-18T22:04:09.548Z,5.72
2023-01-18T22:06:39.497Z,5.82
2023-01-18T22:09:08.018Z,6.68
2023-01-18T22:11:36.650Z,5.72
2023-01-18T22:14:07.870Z,5.53
2023-01-18T22:16:38.376Z,6.25
2023-01-18T22:19:09.448Z,4.97
2023-01-18T22:21:38.015Z,5.63
2023-01-18T22:24:06.945Z,5.40
2023-01-18T22:26:36.427Z,5.43
2023-01-18T22:29:07.202Z,5.50
2023-01-18T22:31:37.154Z,6.18
2023-01-18T22:34:06.248Z,5.57
2023-01-18T22:36:43.764Z,7.18
2023-01-18T22:39:12.791Z,6.78
2023-01-18T22:41:41.028Z,6.63
2023-01-18T22:44:09.664Z,6.10
2023-01-18T22:46:39.190Z,6.63
2023-01-18T22:49:07.500Z,5.65
2023-01-18T22:51:35.850Z,5.57
2023-01-18T22:54:03.880Z,6.15
2023-01-18T22:56:32.004Z,6.35
2023-01-18T22:59:02.920Z,6.85
2023-01-18T23:01:33.828Z,6.40
2023-01-18T23:04:04.771Z,6.80
2023-01-18T23:06:42.585Z,6.90
2023-01-18T23:09:11.505Z,6.45
2023-01-18T23:11:40.763Z,5.55
2023-01-18T23:14:26.393Z,5.82
2023-01-18T23:17:11.875Z,4.93
2023-01-18T23:19:41.619Z,5.57
2023-01-18T23:22:10.601Z,5.40
2023-01-18T23:24:39.924Z,5.80
2023-01-18T23:27:14.011Z,4.93
2023-01-18T23:29:42.128Z,5.78
2023-01-18T23:32:10.508Z,5.43
2023-01-18T23:34:39.228Z,5.35
2023-01-18T23:37:09.188Z,4.68
2023-01-18T23:39:54.619Z,5.30
2023-01-18T23:42:40.037Z,5.10
2023-01-18T23:45:27.346Z,4.65
2023-01-18T23:51:42.000Z,4.68
2023-01-18T23:54:15.977Z,5.43
2023-01-18T23:56:48.596Z,5.10
2023-01-18T23:59:16.862Z,4.57
